sensor_id;sensor_type;location;lat;lon;timestamp;P1;durP1;ratioP1;P2;durP2;ratioP2
50531;SDS011;36483;37.396;-122.212;2023-04-25T00:00:30;6.18;;;2.28;;
50531;SDS011;36483;37.396;-122.212;2023-04-25T00:02:56;6.45;;;2.10;;
50531;SDS011;36483;37.396;-122.212;2023-04-25T00:05:23;7.60;;;2.10;;
50531;SDS011;36483;37.396;-122.212;2023-04-25T00:07:49;9.07;;;2.40;;
50531;SDS011;36483;37.396;-122.212;2023-04-25T00:10:15;8.45;;;2.08;;
50531;SDS011;36483;37.396;-122.212;2023-04-25T00:12:42;8.07;;;2.35;;
50531;SDS011;36483;37.396;-122.212;2023-04-25T00:15:08;8.27;;;2.60;;
50531;SDS011;36483;37.396;-122.212;2023-04-25T00:17:35;8.35;;;2.65;;
50531;SDS011;36483;37.396;-122.212;2023-04-25T00:20:04;7.57;;;2.10;;
50531;SDS011;36483;37.396;-122.212;2023-04-25T00:22:31;8.00;;;2.75;;
50531;SDS011;36483;37.396;-122.212;2023-04-25T00:24:59;11.45;;;2.30;;
50531;SDS011;36483;37.396;-122.212;2023-04-25T00:27:26;5.43;;;2.00;;
50531;SDS011;36483;37.396;-122.212;2023-04-25T00:29:52;5.97;;;1.90;;
50531;SDS011;36483;37.396;-122.212;2023-04-25T00:32:18;8.20;;;2.72;;
50531;SDS011;36483;37.396;-122.212;2023-04-25T00:34:45;6.57;;;2.38;;
50531;SDS011;36483;37.396;-122.212;2023-04-25T00:37:11;9.20;;;2.58;;
50531;SDS011;36483;37.396;-122.212;2023-04-25T00:39:37;6.47;;;2.00;;
50531;SDS011;36483;37.396;-122.212;2023-04-25T00:42:04;11.23;;;2.30;;
50531;SDS011;36483;37.396;-122.212;2023-04-25T00:44:31;6.75;;;2.10;;
50531;SDS011;36483;37.396;-122.212;2023-04-25T00:46:57;7.55;;;2.30;;
50531;SDS011;36483;37.396;-122.212;2023-04-25T00:49:23;12.20;;;2.58;;
50531;SDS011;36483;37.396;-122.212;2023-04-25T00:51:50;5.90;;;2.13;;
50531;SDS011;36483;37.396;-122.212;2023-04-25T00:54:16;8.20;;;2.25;;
50531;SDS011;36483;37.396;-122.212;2023-04-25T00:56:42;12.13;;;2.60;;
50531;SDS011;36483;37.396;-122.212;2023-04-25T00:59:10;7.72;;;2.17;;
50531;SDS011;36483;37.396;-122.212;2023-04-25T01:01:36;7.38;;;2.35;;
50531;SDS011;36483;37.396;-122.212;2023-04-25T01:04:04;9.50;;;2.28;;
50531;SDS011;36483;37.396;-122.212;2023-04-25T01:06:30;5.72;;;2.10;;
50531;SDS011;36483;37.396;-122.212;2023-04-25T01:08:57;8.57;;;2.70;;
50531;SDS011;36483;37.396;-122.212;2023-04-25T01:11:25;8.77;;;2.17;;
50531;SDS011;36483;37.396;-122.212;2023-04-25T01:13:51;9.10;;;2.72;;
50531;SDS011;36483;37.396;-122.212;2023-04-25T01:16:17;7.78;;;2.28;;
50531;SDS011;36483;37.396;-122.212;2023-04-25T01:18:45;10.05;;;2.28;;
50531;SDS011;36483;37.396;-122.212;2023-04-25T01:21:11;8.23;;;2.42;;
50531;SDS011;36483;37.396;-122.212;2023-04-25T01:23:41;9.40;;;2.45;;
50531;SDS011;36483;37.396;-122.212;2023-04-25T01:26:09;8.05;;;2.30;;
50531;SDS011;36483;37.396;-122.212;2023-04-25T01:28:36;8.05;;;2.60;;
50531;SDS011;36483;37.396;-122.212;2023-04-25T01:31:06;9.25;;;2.15;;
50531;SDS011;36483;37.396;-122.212;2023-04-25T01:33:32;8.75;;;2.70;;
50531;SDS011;36483;37.396;-122.212;2023-04-25T01:35:59;7.40;;;2.40;;
50531;SDS011;36483;37.396;-122.212;2023-04-25T01:38:25;7.80;;;2.10;;
50531;SDS011;36483;37.396;-122.212;2023-04-25T01:40:51;11.38;;;2.63;;
50531;SDS011;36483;37.396;-122.212;2023-04-25T01:43:17;6.75;;;2.40;;
50531;SDS011;36483;37.396;-122.212;2023-04-25T01:45:44;11.88;;;2.30;;
50531;SDS011;36483;37.396;-122.212;2023-04-25T01:48:11;9.38;;;2.17;;
50531;SDS011;36483;37.396;-122.212;2023-04-25T01:50:38;10.60;;;2.47;;
50531;SDS011;36483;37.396;-122.212;2023-04-25T01:53:05;10.07;;;2.85;;
50531;SDS011;36483;37.396;-122.212;2023-04-25T01:55:31;7.68;;;2.10;;
50531;SDS011;36483;37.396;-122.212;2023-04-25T01:57:58;9.02;;;2.67;;
50531;SDS011;36483;37.396;-122.212;2023-04-25T02:00:25;8.10;;;2.33;;
50531;SDS011;36483;37.396;-122.212;2023-04-25T02:02:52;10.13;;;2.53;;
50531;SDS011;36483;37.396;-122.212;2023-04-25T02:05:19;7.97;;;2.30;;
50531;SDS011;36483;37.396;-122.212;2023-04-25T02:07:46;5.75;;;2.13;;
50531;SDS011;36483;37.396;-122.212;2023-04-25T02:10:14;8.75;;;2.42;;
50531;SDS011;36483;37.396;-122.212;2023-04-25T02:12:40;11.73;;;2.60;;
50531;SDS011;36483;37.396;-122.212;2023-04-25T02:15:06;9.55;;;2.63;;
50531;SDS011;36483;37.396;-122.212;2023-04-25T02:17:33;10.48;;;2.50;;
50531;SDS011;36483;37.396;-122.212;2023-04-25T02:19:59;6.40;;;1.98;;
50531;SDS011;36483;37.396;-122.212;2023-04-25T02:22:25;9.93;;;2.63;;
50531;SDS011;36483;37.396;-122.212;2023-04-25T02:24:54;7.93;;;2.42;;
50531;SDS011;36483;37.396;-122.212;2023-04-25T02:27:21;8.55;;;2.30;;
50531;SDS011;36483;37.396;-122.212;2023-04-25T02:29:47;8.30;;;2.53;;
50531;SDS011;36483;37.396;-122.212;2023-04-25T02:32:13;9.20;;;2.50;;
50531;SDS011;36483;37.396;-122.212;2023-04-25T02:34:39;11.50;;;2.97;;
50531;SDS011;36483;37.396;-122.212;2023-04-25T02:37:06;8.15;;;2.55;;
50531;SDS011;36483;37.396;-122.212;2023-04-25T02:39:32;8.68;;;2.80;;
50531;SDS011;36483;37.396;-122.212;2023-04-25T02:41:58;11.68;;;2.50;;
50531;SDS011;36483;37.396;-122.212;2023-04-25T02:44:43;8.60;;;2.25;;
50531;SDS011;36483;37.396;-122.212;2023-04-25T02:47:09;8.75;;;2.20;;
50531;SDS011;36483;37.396;-122.212;2023-04-25T02:49:35;8.52;;;2.47;;
50531;SDS011;36483;37.396;-122.212;2023-04-25T02:52:02;6.43;;;2.20;;
50531;SDS011;36483;37.396;-122.212;2023-04-25T02:54:28;9.95;;;2.60;;
50531;SDS011;36483;37.396;-122.212;2023-04-25T02:56:54;9.13;;;2.45;;
50531;SDS011;36483;37.396;-122.212;2023-04-25T02:59:20;6.35;;;2.25;;
50531;SDS011;36483;37.396;-122.212;2023-04-25T03:01:46;8.77;;;2.53;;
50531;SDS011;36483;37.396;-122.212;2023-04-25T03:04:13;9.70;;;2.55;;
50531;SDS011;36483;37.396;-122.212;2023-04-25T03:06:39;8.98;;;2.50;;
50531;SDS011;36483;37.396;-122.212;2023-04-25T03:09:05;7.57;;;2.55;;
50531;SDS011;36483;37.396;-122.212;2023-04-25T03:11:31;8.50;;;2.40;;
50531;SDS011;36483;37.396;-122.212;2023-04-25T03:13:58;8.65;;;2.42;;
50531;SDS011;36483;37.396;-122.212;2023-04-25T03:16:24;12.10;;;3.17;;
50531;SDS011;36483;37.396;-122.212;2023-04-25T03:18:51;12.55;;;2.83;;
50531;SDS011;36483;37.396;-122.212;2023-04-25T03:21:17;11.40;;;2.90;;
50531;SDS011;36483;37.396;-122.212;2023-04-25T03:23:43;14.15;;;3.00;;
50531;SDS011;36483;37.396;-122.212;2023-04-25T03:26:09;6.38;;;2.60;;
50531;SDS011;36483;37.396;-122.212;2023-04-25T03:28:35;12.48;;;2.70;;
50531;SDS011;36483;37.396;-122.212;2023-04-25T03:31:02;9.93;;;2.85;;
50531;SDS011;36483;37.396;-122.212;2023-04-25T03:33:28;12.23;;;3.38;;
50531;SDS011;36483;37.396;-122.212;2023-04-25T03:35:55;10.95;;;2.90;;
50531;SDS011;36483;37.396;-122.212;2023-04-25T03:38:21;12.38;;;2.78;;
50531;SDS011;36483;37.396;-122.212;2023-04-25T03:40:47;10.13;;;3.17;;
50531;SDS011;36483;37.396;-122.212;2023-04-25T03:43:13;11.52;;;3.08;;
50531;SDS011;36483;37.396;-122.212;2023-04-25T03:45:40;9.20;;;2.67;;
50531;SDS011;36483;37.396;-122.212;2023-04-25T03:48:06;13.05;;;3.10;;
50531;SDS011;36483;37.396;-122.212;2023-04-25T03:50:32;8.90;;;2.53;;
50531;SDS011;36483;37.396;-122.212;2023-04-25T03:52:58;10.68;;;3.10;;
50531;SDS011;36483;37.396;-122.212;2023-04-25T03:55:24;14.88;;;3.03;;
50531;SDS011;36483;37.396;-122.212;2023-04-25T03:57:51;13.18;;;3.08;;
50531;SDS011;36483;37.396;-122.212;2023-04-25T04:00:17;11.52;;;2.75;;
50531;SDS011;36483;37.396;-122.212;2023-04-25T04:02:43;9.82;;;3.58;;
50531;SDS011;36483;37.396;-122.212;2023-04-25T04:05:09;13.52;;;3.63;;
50531;SDS011;36483;37.396;-122.212;2023-04-25T04:07:35;9.35;;;3.08;;
50531;SDS011;36483;37.396;-122.212;2023-04-25T04:10:06;14.70;;;3.60;;
50531;SDS011;36483;37.396;-122.212;2023-04-25T04:12:33;13.23;;;3.10;;
50531;SDS011;36483;37.396;-122.212;2023-04-25T04:14:59;13.27;;;3.70;;
50531;SDS011;36483;37.396;-122.212;2023-04-25T04:17:25;15.20;;;3.50;;
50531;SDS011;36483;37.396;-122.212;2023-04-25T04:19:51;12.90;;;3.20;;
50531;SDS011;36483;37.396;-122.212;2023-04-25T04:22:18;10.63;;;3.20;;
50531;SDS011;36483;37.396;-122.212;2023-04-25T04:24:44;10.20;;;2.80;;
50531;SDS011;36483;37.396;-122.212;2023-04-25T04:27:11;13.45;;;3.75;;
50531;SDS011;36483;37.396;-122.212;2023-04-25T04:29:38;10.88;;;3.28;;
50531;SDS011;36483;37.396;-122.212;2023-04-25T04:32:05;12.63;;;3.70;;
50531;SDS011;36483;37.396;-122.212;2023-04-25T04:34:31;12.80;;;3.28;;
50531;SDS011;36483;37.396;-122.212;2023-04-25T04:36:59;9.18;;;2.80;;
50531;SDS011;36483;37.396;-122.212;2023-04-25T04:39:25;15.52;;;3.22;;
50531;SDS011;36483;37.396;-122.212;2023-04-25T04:41:51;11.15;;;2.83;;
50531;SDS011;36483;37.396;-122.212;2023-04-25T04:44:18;8.77;;;3.15;;
50531;SDS011;36483;37.396;-122.212;2023-04-25T04:46:45;15.73;;;3.10;;
50531;SDS011;36483;37.396;-122.212;2023-04-25T04:49:11;11.32;;;2.90;;
50531;SDS011;36483;37.396;-122.212;2023-04-25T04:51:41;8.52;;;2.75;;
50531;SDS011;36483;37.396;-122.212;2023-04-25T04:54:09;10.13;;;3.00;;
50531;SDS011;36483;37.396;-122.212;2023-04-25T04:56:35;13.48;;;3.15;;
50531;SDS011;36483;37.396;-122.212;2023-04-25T04:59:02;14.65;;;3.40;;
50531;SDS011;36483;37.396;-122.212;2023-04-25T05:01:28;11.70;;;3.20;;
50531;SDS011;36483;37.396;-122.212;2023-04-25T05:03:55;10.13;;;2.78;;
50531;SDS011;36483;37.396;-122.212;2023-04-25T05:06:26;15.70;;;3.25;;
50531;SDS011;36483;37.396;-122.212;2023-04-25T05:08:54;12.65;;;3.40;;
50531;SDS011;36483;37.396;-122.212;2023-04-25T05:11:21;12.35;;;3.22;;
50531;SDS011;36483;37.396;-122.212;2023-04-25T05:13:49;10.45;;;2.97;;
50531;SDS011;36483;37.396;-122.212;2023-04-25T05:16:16;12.60;;;3.00;;
50531;SDS011;36483;37.396;-122.212;2023-04-25T05:18:42;12.52;;;3.08;;
50531;SDS011;36483;37.396;-122.212;2023-04-25T05:21:09;12.52;;;3.38;;
50531;SDS011;36483;37.396;-122.212;2023-04-25T05:23:35;14.05;;;3.78;;
50531;SDS011;36483;37.396;-122.212;2023-04-25T05:26:01;12.65;;;3.80;;
50531;SDS011;36483;37.396;-122.212;2023-04-25T05:28:27;11.82;;;4.40;;
50531;SDS011;36483;37.396;-122.212;2023-04-25T05:30:53;13.25;;;4.80;;
50531;SDS011;36483;37.396;-122.212;2023-04-25T05:33:20;11.23;;;4.15;;
50531;SDS011;36483;37.396;-122.212;2023-04-25T05:35:46;9.68;;;5.00;;
50531;SDS011;36483;37.396;-122.212;2023-04-25T05:38:12;13.75;;;4.80;;
50531;SDS011;36483;37.396;-122.212;2023-04-25T05:40:38;13.63;;;4.50;;
50531;SDS011;36483;37.396;-122.212;2023-04-25T05:43:04;12.32;;;4.28;;
50531;SDS011;36483;37.396;-122.212;2023-04-25T05:45:31;12.82;;;3.88;;
50531;SDS011;36483;37.396;-122.212;2023-04-25T05:47:57;13.00;;;4.03;;
50531;SDS011;36483;37.396;-122.212;2023-04-25T05:50:23;9.40;;;3.15;;
50531;SDS011;36483;37.396;-122.212;2023-04-25T05:52:50;12.75;;;3.38;;
50531;SDS011;36483;37.396;-122.212;2023-04-25T05:55:16;10.88;;;3.80;;
50531;SDS011;36483;37.396;-122.212;2023-04-25T05:57:42;8.65;;;3.10;;
50531;SDS011;36483;37.396;-122.212;2023-04-25T06:00:11;11.77;;;3.15;;
50531;SDS011;36483;37.396;-122.212;2023-04-25T06:02:38;9.77;;;3.10;;
50531;SDS011;36483;37.396;-122.212;2023-04-25T06:05:05;7.88;;;2.83;;
50531;SDS011;36483;37.396;-122.212;2023-04-25T06:07:31;7.25;;;2.45;;
50531;SDS011;36483;37.396;-122.212;2023-04-25T06:09:57;8.48;;;2.30;;
50531;SDS011;36483;37.396;-122.212;2023-04-25T06:12:24;9.27;;;2.40;;
50531;SDS011;36483;37.396;-122.212;2023-04-25T06:14:50;12.25;;;2.50;;
50531;SDS011;36483;37.396;-122.212;2023-04-25T06:17:17;6.28;;;2.78;;
50531;SDS011;36483;37.396;-122.212;2023-04-25T06:19:43;9.88;;;2.67;;
50531;SDS011;36483;37.396;-122.212;2023-04-25T06:22:09;8.05;;;2.60;;
50531;SDS011;36483;37.396;-122.212;2023-04-25T06:24:36;9.80;;;2.47;;
50531;SDS011;36483;37.396;-122.212;2023-04-25T06:27:02;7.05;;;2.33;;
50531;SDS011;36483;37.396;-122.212;2023-04-25T06:29:28;8.68;;;2.65;;
50531;SDS011;36483;37.396;-122.212;2023-04-25T06:31:54;9.82;;;2.75;;
50531;SDS011;36483;37.396;-122.212;2023-04-25T06:34:20;9.40;;;3.08;;
50531;SDS011;36483;37.396;-122.212;2023-04-25T06:36:47;7.40;;;2.38;;
50531;SDS011;36483;37.396;-122.212;2023-04-25T06:39:13;6.13;;;2.10;;
50531;SDS011;36483;37.396;-122.212;2023-04-25T06:41:39;8.98;;;2.58;;
50531;SDS011;36483;37.396;-122.212;2023-04-25T06:44:26;8.45;;;2.40;;
50531;SDS011;36483;37.396;-122.212;2023-04-25T06:46:54;11.18;;;2.55;;
50531;SDS011;36483;37.396;-122.212;2023-04-25T06:49:20;11.30;;;2.75;;
50531;SDS011;36483;37.396;-122.212;2023-04-25T06:51:47;5.80;;;2.47;;
50531;SDS011;36483;37.396;-122.212;2023-04-25T06:54:14;7.35;;;2.55;;
50531;SDS011;36483;37.396;-122.212;2023-04-25T06:56:40;8.38;;;2.90;;
50531;SDS011;36483;37.396;-122.212;2023-04-25T06:59:06;7.13;;;2.58;;
50531;SDS011;36483;37.396;-122.212;2023-04-25T07:01:33;11.45;;;2.92;;
50531;SDS011;36483;37.396;-122.212;2023-04-25T07:03:59;8.45;;;2.40;;
50531;SDS011;36483;37.396;-122.212;2023-04-25T07:06:25;8.68;;;2.75;;
50531;SDS011;36483;37.396;-122.212;2023-04-25T07:08:53;8.20;;;2.55;;
50531;SDS011;36483;37.396;-122.212;2023-04-25T07:11:20;7.07;;;2.40;;
50531;SDS011;36483;37.396;-122.212;2023-04-25T07:13:46;7.13;;;2.50;;
50531;SDS011;36483;37.396;-122.212;2023-04-25T07:16:12;6.35;;;2.58;;
50531;SDS011;36483;37.396;-122.212;2023-04-25T07:18:38;8.63;;;2.60;;
50531;SDS011;36483;37.396;-122.212;2023-04-25T07:21:25;8.40;;;2.75;;
50531;SDS011;36483;37.396;-122.212;2023-04-25T07:23:51;8.80;;;2.53;;
50531;SDS011;36483;37.396;-122.212;2023-04-25T07:26:17;7.63;;;2.40;;
50531;SDS011;36483;37.396;-122.212;2023-04-25T07:28:43;6.55;;;2.20;;
50531;SDS011;36483;37.396;-122.212;2023-04-25T07:31:10;9.38;;;2.35;;
50531;SDS011;36483;37.396;-122.212;2023-04-25T07:33:36;9.63;;;2.35;;
50531;SDS011;36483;37.396;-122.212;2023-04-25T07:36:02;6.20;;;2.10;;
50531;SDS011;36483;37.396;-122.212;2023-04-25T07:38:29;6.88;;;2.30;;
50531;SDS011;36483;37.396;-122.212;2023-04-25T07:40:55;7.47;;;2.15;;
50531;SDS011;36483;37.396;-122.212;2023-04-25T07:43:21;6.82;;;2.15;;
50531;SDS011;36483;37.396;-122.212;2023-04-25T07:45:47;8.80;;;2.00;;
50531;SDS011;36483;37.396;-122.212;2023-04-25T07:48:17;5.32;;;1.80;;
50531;SDS011;36483;37.396;-122.212;2023-04-25T07:50:44;5.82;;;1.77;;
50531;SDS011;36483;37.396;-122.212;2023-04-25T07:53:10;6.93;;;2.03;;
50531;SDS011;36483;37.396;-122.212;2023-04-25T07:55:36;5.88;;;1.90;;
50531;SDS011;36483;37.396;-122.212;2023-04-25T07:58:08;6.50;;;1.80;;
50531;SDS011;36483;37.396;-122.212;2023-04-25T08:00:35;6.95;;;1.98;;
50531;SDS011;36483;37.396;-122.212;2023-04-25T08:03:02;5.15;;;2.00;;
50531;SDS011;36483;37.396;-122.212;2023-04-25T08:05:28;8.63;;;2.08;;
50531;SDS011;36483;37.396;-122.212;2023-04-25T08:07:54;5.85;;;1.98;;
50531;SDS011;36483;37.396;-122.212;2023-04-25T08:10:22;5.78;;;2.20;;
50531;SDS011;36483;37.396;-122.212;2023-04-25T08:12:48;4.90;;;1.95;;
50531;SDS011;36483;37.396;-122.212;2023-04-25T08:15:15;7.85;;;1.83;;
50531;SDS011;36483;37.396;-122.212;2023-04-25T08:17:41;4.93;;;1.60;;
50531;SDS011;36483;37.396;-122.212;2023-04-25T08:20:09;7.50;;;1.90;;
50531;SDS011;36483;37.396;-122.212;2023-04-25T08:22:36;4.40;;;1.65;;
50531;SDS011;36483;37.396;-122.212;2023-04-25T08:25:02;6.82;;;1.75;;
50531;SDS011;36483;37.396;-122.212;2023-04-25T08:27:28;8.23;;;1.95;;
50531;SDS011;36483;37.396;-122.212;2023-04-25T08:29:55;5.40;;;1.70;;
50531;SDS011;36483;37.396;-122.212;2023-04-25T08:32:21;4.55;;;1.80;;
50531;SDS011;36483;37.396;-122.212;2023-04-25T08:34:47;6.25;;;2.20;;
50531;SDS011;36483;37.396;-122.212;2023-04-25T08:37:14;7.82;;;2.05;;
50531;SDS011;36483;37.396;-122.212;2023-04-25T08:39:40;6.95;;;2.00;;
50531;SDS011;36483;37.396;-122.212;2023-04-25T08:42:07;4.72;;;1.63;;
50531;SDS011;36483;37.396;-122.212;2023-04-25T08:44:34;6.82;;;2.00;;
50531;SDS011;36483;37.396;-122.212;2023-04-25T08:47:03;5.40;;;1.98;;
50531;SDS011;36483;37.396;-122.212;2023-04-25T08:49:34;8.88;;;1.85;;
50531;SDS011;36483;37.396;-122.212;2023-04-25T08:52:02;10.75;;;1.83;;
50531;SDS011;36483;37.396;-122.212;2023-04-25T08:54:31;6.65;;;1.85;;
50531;SDS011;36483;37.396;-122.212;2023-04-25T08:57:01;8.48;;;1.95;;
50531;SDS011;36483;37.396;-122.212;2023-04-25T08:59:29;6.00;;;1.80;;
50531;SDS011;36483;37.396;-122.212;2023-04-25T09:01:55;4.93;;;1.95;;
50531;SDS011;36483;37.396;-122.212;2023-04-25T09:04:22;5.22;;;1.90;;
50531;SDS011;36483;37.396;-122.212;2023-04-25T09:06:49;6.18;;;1.73;;
50531;SDS011;36483;37.396;-122.212;2023-04-25T09:09:15;7.18;;;1.95;;
50531;SDS011;36483;37.396;-122.212;2023-04-25T09:11:41;6.32;;;2.10;;
50531;SDS011;36483;37.396;-122.212;2023-04-25T09:14:14;7.32;;;1.80;;
50531;SDS011;36483;37.396;-122.212;2023-04-25T09:19:29;7.43;;;2.20;;
50531;SDS011;36483;37.396;-122.212;2023-04-25T09:22:05;6.53;;;1.98;;
50531;SDS011;36483;37.396;-122.212;2023-04-25T09:24:37;8.70;;;2.08;;
50531;SDS011;36483;37.396;-122.212;2023-04-25T09:27:04;5.85;;;2.03;;
50531;SDS011;36483;37.396;-122.212;2023-04-25T09:29:36;7.80;;;2.25;;
50531;SDS011;36483;37.396;-122.212;2023-04-25T09:32:10;4.97;;;1.85;;
50531;SDS011;36483;37.396;-122.212;2023-04-25T09:34:41;7.32;;;2.00;;
50531;SDS011;36483;37.396;-122.212;2023-04-25T09:37:09;8.57;;;2.20;;
50531;SDS011;36483;37.396;-122.212;2023-04-25T09:39:38;6.82;;;1.98;;
50531;SDS011;36483;37.396;-122.212;2023-04-25T09:42:05;7.85;;;2.10;;
50531;SDS011;36483;37.396;-122.212;2023-04-25T09:44:31;7.18;;;2.13;;
50531;SDS011;36483;37.396;-122.212;2023-04-25T09:46:57;7.53;;;1.85;;
50531;SDS011;36483;37.396;-122.212;2023-04-25T09:49:27;7.30;;;2.10;;
50531;SDS011;36483;37.396;-122.212;2023-04-25T09:51:54;8.50;;;2.10;;
50531;SDS011;36483;37.396;-122.212;2023-04-25T09:54:26;8.20;;;2.40;;
50531;SDS011;36483;37.396;-122.212;2023-04-25T09:56:53;5.63;;;2.40;;
50531;SDS011;36483;37.396;-122.212;2023-04-25T09:59:20;13.18;;;2.30;;
50531;SDS011;36483;37.396;-122.212;2023-04-25T10:01:48;5.68;;;2.17;;
50531;SDS011;36483;37.396;-122.212;2023-04-25T10:04:24;11.75;;;2.53;;
50531;SDS011;36483;37.396;-122.212;2023-04-25T10:06:53;5.90;;;2.08;;
50531;SDS011;36483;37.396;-122.212;2023-04-25T10:09:23;8.70;;;2.42;;
50531;SDS011;36483;37.396;-122.212;2023-04-25T10:11:51;5.53;;;2.08;;
50531;SDS011;36483;37.396;-122.212;2023-04-25T10:14:18;7.25;;;2.33;;
50531;SDS011;36483;37.396;-122.212;2023-04-25T10:16:45;6.05;;;2.25;;
50531;SDS011;36483;37.396;-122.212;2023-04-25T10:19:11;8.40;;;2.63;;
50531;SDS011;36483;37.396;-122.212;2023-04-25T10:24:35;8.52;;;2.20;;
50531;SDS011;36483;37.396;-122.212;2023-04-25T10:27:02;9.02;;;2.40;;
50531;SDS011;36483;37.396;-122.212;2023-04-25T10:29:28;8.60;;;2.55;;
50531;SDS011;36483;37.396;-122.212;2023-04-25T10:31:55;8.27;;;2.47;;
50531;SDS011;36483;37.396;-122.212;2023-04-25T10:34:25;6.13;;;2.17;;
50531;SDS011;36483;37.396;-122.212;2023-04-25T10:37:05;7.78;;;2.30;;
50531;SDS011;36483;37.396;-122.212;2023-04-25T10:39:34;9.18;;;2.58;;
50531;SDS011;36483;37.396;-122.212;2023-04-25T10:42:01;7.47;;;2.55;;
50531;SDS011;36483;37.396;-122.212;2023-04-25T10:44:29;7.30;;;2.60;;
50531;SDS011;36483;37.396;-122.212;2023-04-25T10:46:56;8.32;;;2.33;;
50531;SDS011;36483;37.396;-122.212;2023-04-25T10:49:30;9.52;;;2.50;;
50531;SDS011;36483;37.396;-122.212;2023-04-25T10:54:49;8.73;;;2.30;;
50531;SDS011;36483;37.396;-122.212;2023-04-25T10:57:31;9.85;;;2.75;;
50531;SDS011;36483;37.396;-122.212;2023-04-25T11:02:45;10.10;;;2.67;;
50531;SDS011;36483;37.396;-122.212;2023-04-25T11:07:53;9.07;;;2.80;;
50531;SDS011;36483;37.396;-122.212;2023-04-25T11:10:26;7.60;;;2.50;;
50531;SDS011;36483;37.396;-122.212;2023-04-25T11:12:53;9.73;;;2.53;;
50531;SDS011;36483;37.396;-122.212;2023-04-25T11:15:19;10.98;;;2.88;;
50531;SDS011;36483;37.396;-122.212;2023-04-25T11:17:45;8.85;;;2.55;;
50531;SDS011;36483;37.396;-122.212;2023-04-25T11:20:12;12.48;;;2.78;;
50531;SDS011;36483;37.396;-122.212;2023-04-25T11:22:41;9.93;;;2.80;;
50531;SDS011;36483;37.396;-122.212;2023-04-25T11:25:08;7.80;;;2.30;;
50531;SDS011;36483;37.396;-122.212;2023-04-25T11:27:51;9.90;;;2.30;;
50531;SDS011;36483;37.396;-122.212;2023-04-25T11:32:43;8.82;;;2.58;;
50531;SDS011;36483;37.396;-122.212;2023-04-25T11:35:10;6.88;;;2.38;;
50531;SDS011;36483;37.396;-122.212;2023-04-25T11:37:40;9.55;;;2.95;;
50531;SDS011;36483;37.396;-122.212;2023-04-25T11:40:07;8.73;;;2.75;;
50531;SDS011;36483;37.396;-122.212;2023-04-25T11:42:38;9.43;;;2.90;;
50531;SDS011;36483;37.396;-122.212;2023-04-25T11:45:05;7.05;;;2.45;;
50531;SDS011;36483;37.396;-122.212;2023-04-25T11:47:33;9.13;;;2.80;;
50531;SDS011;36483;37.396;-122.212;2023-04-25T11:50:00;12.00;;;2.88;;
50531;SDS011;36483;37.396;-122.212;2023-04-25T11:55:04;10.23;;;3.03;;
50531;SDS011;36483;37.396;-122.212;2023-04-25T11:57:35;9.20;;;2.60;;
50531;SDS011;36483;37.396;-122.212;2023-04-25T12:02:41;8.20;;;2.60;;
50531;SDS011;36483;37.396;-122.212;2023-04-25T12:05:08;8.15;;;2.80;;
50531;SDS011;36483;37.396;-122.212;2023-04-25T12:07:37;10.68;;;2.97;;
50531;SDS011;36483;37.396;-122.212;2023-04-25T12:10:04;7.47;;;2.83;;
50531;SDS011;36483;37.396;-122.212;2023-04-25T12:12:35;13.48;;;3.15;;
50531;SDS011;36483;37.396;-122.212;2023-04-25T12:15:14;10.15;;;2.33;;
50531;SDS011;36483;37.396;-122.212;2023-04-25T12:17:49;7.65;;;2.55;;
50531;SDS011;36483;37.396;-122.212;2023-04-25T12:20:16;9.18;;;3.35;;
50531;SDS011;36483;37.396;-122.212;2023-04-25T12:22:46;7.38;;;2.65;;
50531;SDS011;36483;37.396;-122.212;2023-04-25T12:33:41;12.38;;;3.42;;
50531;SDS011;36483;37.396;-122.212;2023-04-25T12:36:09;11.18;;;2.97;;
50531;SDS011;36483;37.396;-122.212;2023-04-25T12:38:38;8.68;;;3.00;;
50531;SDS011;36483;37.396;-122.212;2023-04-25T12:41:05;12.20;;;3.25;;
50531;SDS011;36483;37.396;-122.212;2023-04-25T12:43:32;8.57;;;2.78;;
50531;SDS011;36483;37.396;-122.212;2023-04-25T12:45:58;10.80;;;3.40;;
50531;SDS011;36483;37.396;-122.212;2023-04-25T12:48:24;12.02;;;3.35;;
50531;SDS011;36483;37.396;-122.212;2023-04-25T12:50:51;9.70;;;2.85;;
50531;SDS011;36483;37.396;-122.212;2023-04-25T12:53:22;8.00;;;2.70;;
50531;SDS011;36483;37.396;-122.212;2023-04-25T12:55:51;10.07;;;3.05;;
50531;SDS011;36483;37.396;-122.212;2023-04-25T12:58:18;11.02;;;3.10;;
50531;SDS011;36483;37.396;-122.212;2023-04-25T13:00:45;10.30;;;3.05;;
50531;SDS011;36483;37.396;-122.212;2023-04-25T13:03:11;11.65;;;3.08;;
50531;SDS011;36483;37.396;-122.212;2023-04-25T13:05:38;7.05;;;3.08;;
50531;SDS011;36483;37.396;-122.212;2023-04-25T13:08:04;8.77;;;2.80;;
50531;SDS011;36483;37.396;-122.212;2023-04-25T13:10:31;11.38;;;3.33;;
50531;SDS011;36483;37.396;-122.212;2023-04-25T13:12:59;13.48;;;3.03;;
50531;SDS011;36483;37.396;-122.212;2023-04-25T13:15:26;12.65;;;3.17;;
50531;SDS011;36483;37.396;-122.212;2023-04-25T13:17:52;9.70;;;3.10;;
50531;SDS011;36483;37.396;-122.212;2023-04-25T13:20:19;10.88;;;2.95;;
50531;SDS011;36483;37.396;-122.212;2023-04-25T13:22:47;9.77;;;3.60;;
50531;SDS011;36483;37.396;-122.212;2023-04-25T13:25:13;9.55;;;3.10;;
50531;SDS011;36483;37.396;-122.212;2023-04-25T13:27:40;11.60;;;3.40;;
50531;SDS011;36483;37.396;-122.212;2023-04-25T13:30:07;12.48;;;3.45;;
50531;SDS011;36483;37.396;-122.212;2023-04-25T13:32:34;10.13;;;3.25;;
50531;SDS011;36483;37.396;-122.212;2023-04-25T13:35:04;10.00;;;3.35;;
50531;SDS011;36483;37.396;-122.212;2023-04-25T13:37:37;9.45;;;3.00;;
50531;SDS011;36483;37.396;-122.212;2023-04-25T13:40:05;12.60;;;3.42;;
50531;SDS011;36483;37.396;-122.212;2023-04-25T13:42:34;9.82;;;3.17;;
50531;SDS011;36483;37.396;-122.212;2023-04-25T13:45:01;11.90;;;3.40;;
50531;SDS011;36483;37.396;-122.212;2023-04-25T13:47:28;13.65;;;3.50;;
50531;SDS011;36483;37.396;-122.212;2023-04-25T13:49:55;12.75;;;3.22;;
50531;SDS011;36483;37.396;-122.212;2023-04-25T13:52:22;13.77;;;3.30;;
50531;SDS011;36483;37.396;-122.212;2023-04-25T13:54:51;9.40;;;3.42;;
50531;SDS011;36483;37.396;-122.212;2023-04-25T13:57:17;10.18;;;3.28;;
50531;SDS011;36483;37.396;-122.212;2023-04-25T13:59:43;10.93;;;3.20;;
50531;SDS011;36483;37.396;-122.212;2023-04-25T14:02:11;11.85;;;2.80;;
50531;SDS011;36483;37.396;-122.212;2023-04-25T14:04:37;11.18;;;2.83;;
50531;SDS011;36483;37.396;-122.212;2023-04-25T14:07:04;11.32;;;3.17;;
50531;SDS011;36483;37.396;-122.212;2023-04-25T14:09:30;14.55;;;3.55;;
50531;SDS011;36483;37.396;-122.212;2023-04-25T14:11:56;15.55;;;3.80;;
50531;SDS011;36483;37.396;-122.212;2023-04-25T14:14:22;11.50;;;3.28;;
50531;SDS011;36483;37.396;-122.212;2023-04-25T14:16:49;13.82;;;4.00;;
50531;SDS011;36483;37.396;-122.212;2023-04-25T14:19:18;13.68;;;3.30;;
50531;SDS011;36483;37.396;-122.212;2023-04-25T14:21:45;10.68;;;3.38;;
50531;SDS011;36483;37.396;-122.212;2023-04-25T14:24:12;11.45;;;3.45;;
50531;SDS011;36483;37.396;-122.212;2023-04-25T14:26:39;10.73;;;3.58;;
50531;SDS011;36483;37.396;-122.212;2023-04-25T14:29:06;8.68;;;3.53;;
50531;SDS011;36483;37.396;-122.212;2023-04-25T14:31:33;13.18;;;3.42;;
50531;SDS011;36483;37.396;-122.212;2023-04-25T14:34:01;11.90;;;3.60;;